In Rescue
 
Open Full Screen Window  High Contrast Mode
Wind Gusting 16 knots
11
August 09, 2020 5:29 PM CDT
Weather Information
Wind Direction
  200 °
Wind Speed
  11 kt (13 mph)
Wind Gust
  16 kt (18 mph)
Altimeter
29.82 in
Visibility
10 SM
Temperature
29° C
84° F
Dewpoint
23° C
73° F
Humidity
70%
1hr Rain Fall
00.00 in.
24hr Rain Fall
00.00 in.
Sky Condition
Clear
VFR

METAR KOWA 092229Z AUTO 20011G16KT 10SM CLR 29/23 A2982 RMK AO2

FAA Disclaimer: The data displayed is for advisory purposes only and is not to be used for flight planning or operations.